Timeline UpdatesTrip UpdatesNews PostsPvt PostsTravel TipsAdmin PostsConv PostsFollowed PostsChat RequestsBlog PostsPNR Posts

Disclaimer
Search
 
 
Thu Aug 21, 2014 13:43:28 ISTHomeTrainsΣChainsAtlasPNRForumGalleryNewsFAQTripsMembersLoginFeedback
No Recent News for this Train
Other Trains in the News **new
Latest...
.
Mon Jul 14, 2014 (10:12PM)
⇐ Return Journey: Train# 12820

12819/Orissa Sampark Kranti Express

Jul 14 2014 (10:12PM)
Change Departure Station:
Change Arrival Station:
Post a Train Travel TipPost a Train Travel Tip **new
Post a Comment/Question/Picture/VideoPost a Comment/Question/Picture/Video
Pantry/Catering
✓ Pantry Car Avbl
✓ Catering Avbl
RSA - Rake Sharing
Rake/Coach Composition
LOCO-SLR-GEN-GEN-A1-B1-B2-B3-PC-S1-S2-S3-S4-S5-S6-S7-S8-S9-S10-S11-GEN-GEN-SLR.
Loco
GZB WAP-4
News    PNR    Forum    Time-Table    Availability    Fare Chart    Map    Arr/Dep History    Trips    Gallery    ΣChains    X/O    Timeline    
Travel Time: 3h 2m    3 halts    Distance: 173 km    Avg Speed: 57 km/hr
Type: Sampark Kranti
Zone: ECoR/East Coast
Departs @ 15:30 (Avg 4m late)
Platform# 2
S  W   
Bhubaneswar/BBS 
Arrives @ 18:32 (Avg 29m late)
Platform# ???
S  W   
Soro/SORO 

3 halts. 32 intermediate Stations between Bhubaneswar and Soro

Hide intermediate Stations  Show Old Time-Table

#CodeStation NameX/OArrivesAvgDepartsAvgHaltPFDay#KmSpeedElevZoneAddress
1BBS»Bhubaneswar (4)»  -15:30+4210.06740mECoRBhubaneshwar, Odisha
1.1BNBHBani Bihar (2)  15:33-15:33-  13.5 6738mECoRBhubaneswar, Odisha
1.2MCSMancheswar  15:36-15:36-  16.8 6727mECoRMancheswar, Odisha
1.3PTABPatia P.H.  15:39-15:39-  19.8 6730mECoRBhubaneshwar, Odisha
1.4BBSNBhubaneswar New  15:40-15:40-  110.6 6732mECoRBhubaneshwar, Odisha
1.5BRAGBarang  15:44-15:44-  115.7 6727mECoRDist - Cuttack, Odisha
1.6GBKGopalpur Balkuda  15:51-15:51-  123.5 6728mECoRGopalpur, Odisha
1.7KTJIKatha Jori  15:54-15:54-  126.2 6728mECoRCuttack, Odisha
2CTCCuttack Junction (5)  15:55+3516:00+375m1127.98028mECoRCuttack, Odisha
2.1KNPRKendrapara Road  16:03-16:03-  132.0 8029mECoRKendrapara Road, Odisha
2.2NRGNergundi  16:08-16:08-  138.5 8026mECoRCuttack District, Odisha
2.3KISKapilas Road JunctionX  16:11-16:11-  142.7 8024mECoRTangi, Odisha
2.4SJDRSri Jhadeshwar RoadX  16:16-16:16-  148.5 8030mECoRNational Highway 5, Odisha
2.5BYYByree  16:18-16:18-  152.5 8033mECoRBairi, Odisha
2.6BRTGBarithengarh  16:22-16:22-  157.0 8025mECoRCuttack, Odisha
2.7DNMDhanmandal (3)O  16:27-16:27-  163.3 8038mECoRDhanmanda, Odisha
2.8HDSHaridaspur  16:30-16:30-  168.5 8030mECoRDhanmandal, Odisha
2.9NGMPNew Garh MadhopurX  16:38-16:38-  178.3 8028mECoRGarh Madhopur, Odisha
2.10JENJenapur  16:42-16:42-  184.2 8023mECoRNational Highway 200, Odisha
2.11BRMIBrahamani PhX  16:44-16:44-  186.5 8022mECoRNational Highway 200, Odisha
2.12JKPRJakhapura  16:48-16:48-  192.1 8019mECoRJajpur, Odisha
3JJKRJajpur Keonjhar Road (4)X  16:54+4316:56+432m--199.93636mECoRJajpur, Odisha
3.1KRIHKorai HaltO  17:04-17:04-  1104.8 3630mECoRJajapur, Odisha
3.2BTVBaitarani Road  17:16-17:16-  1111.7 3627mECoRBaitarani, Odisha
3.3DLPTDulakhapatnaX  17:25-17:25-  1117.2 3627mECoRBandalo, Odisha
3.4MZZManjuri Road  17:31-17:31-  1121.2 3628mECoRBhadrak, Odisha
3.5KEDKenduapada  17:43-17:43-  1128.1 3623mECoRBhadrak, Odisha
3.6KPLDKapali RoadX  17:50-17:50-  1132.8 3620mECoRKantia, Odisha
3.7BUDRBaudpur  17:57-17:57-  1137.1 3621mECoRBhadrak, Odisha
4BHCBhadrak (4)  18:08+1818:10+192m--1143.57923mECoRBhadrak, Odisha
4.1RNTLRanitalX  18:16-18:16-  1151.3 7922mSERBhadrak, Odisha
4.2MKOMarkona  18:21-18:21-  1157.8 7918mSERMarkuna, Odisha
4.3SZZSabira  18:25-18:25-  1163.8 7914mSERNational Highway 5, Odisha
5SORO•Soro•X  18:32+2918:33+311m--1172.57414mSERSoro, Odisha
5.1BNBRBahanaga Bazar  18:40-18:40-  1181.1 7419mSERBalasore Distt., Odisha
5.2PNPNPanpanaX  18:44-18:44-  1185.6 7415mSERKhantaparha, Odisha
5.3KHFKhantaparaX  18:48-18:48-  1190.6 7415mSERKhantaparha, Odisha
5.4NGRDNilgiri Road  18:51-18:51-  1195.3 7414mSERBaleswar, Odisha
6BLSBalasore (4)X  19:00+3319:05+335m31206.07919mSERBalasore, Odisha
6.1TKPLTikirapal Halt  19:09-19:09-  1210.9 798mSERBaleswar, Odisha
6.2HIPHaldipadaX  19:14-19:14-  1217.7 799mSERHaldipada, Odisha
6.3ROPRupsa Junction (5)  19:19-19:19-  1223.8 7913mSERRupsa, Odisha
6.4NMBRN Mayurbhanj Road  19:23-19:23-  1229.2 7911mSERBaleswar, Odisha
6.5BTSBasta (3)  19:26-19:26-  1234.0 7916mSERBasta, Odisha
6.6ARDAmarda Road  19:30-19:30-  1239.3 7911mSERAmarda Road, Odisha
6.7RGTRajghat HaltO  19:35-19:35-  1245.8 7917mSERRajghat, Odisha
7JERJaleswar (4)X  19:41+4119:42+421m--1253.47313mSERJaleswar, Odisha
7.1LXDLakshannath Road  19:47-19:47-  1259.6 7317mSERDist. Balasore, Odisha
7.2AGVAngua  19:52-19:52-  1265.5 7317mSERWest Medinipore, West Bengal
7.3DNTDantan  19:56-19:56-  1270.0 7319mSERNational Highway 60, West Bengal
7.4NSINekurseni (3)  20:03-20:03-  1278.5 7324mSERNikursini, West Bengal
7.5BLDABelda  20:09-20:09-  1286.5 7324mSERDistrict Paschim Medinipur, West Bengal
7.6CNTContai RoadX  20:09-20:09-  1286.6 7324mSERDist - Pashim medinipur, West Bengal
7.7VKDBakhrabad  20:14-20:14-  1292.5 7315mSERMedinipur, West Bengal
7.8NYANarayangarh (4)X  20:19-20:19-  1299.0 7324mSERKasba Narayangarh, West Bengal
7.9BPEBenapur  20:28-20:28-  1310.1 7335mSERNational Highway 60, West Bengal
8HIJHijli (2)  20:35+3520:37+362m--1318.23448mSERdist - paschim medinipur, West Bengal
8.1NPTYNimpura Through Yardp20:47-20:47-  1323.8 6659mSERDist: West Medinipur, West Bengal
8.2KKQKalaikunda (4)  20:49-20:49-  1326.2 6662mSERKharagpur, West Bengal
8.3KSOKhemasuli  20:56-20:56-  1333.6 6660mSERKharagpur, West Bengal
8.4SUASardiha  21:03-21:03-  1341.5 6673mSERSardiha Railway Station, West Bengal
8.5BNBBanstola  21:09-21:09-  1348.3 6674mSERDherua, West Bengal
8.6JGMJhargram (4)  21:17-21:17-  1356.8 6682mSERJhargram, West Bengal
8.7KATBKhatkuraX  21:25-21:25-  1365.2 6679mSERState Highway 4, West Bengal
8.8GIIGidni (3)  21:31-21:31-  1372.4 6683mSERState Highway 4, West Bengal
8.9KNMKanimahuliX  21:38-21:38-  1380.0 66110mSERState Highway 4, West Bengal
8.10CKUChakulia (4)  21:44-21:44-  1386.0 66126mSERChakulia, Jharkhand
8.11KKPRKokpara  21:51-21:51-  1394.1 66102mSEREast Singhbhum District, Jharkhand
8.12DVMDhalbhumgarh  22:01-22:01-  1404.5 66115mSERDhalbhumgarh, Jharkhand
8.13GTSGhatsila (3)  22:12-22:12-  1416.5 66103mSEREast Singhbhum, Jharkhand
8.14GUDGaludih (4)  22:21-22:21-  1426.5 66120mSEREast Singhbhum, Jharkhand
8.15RHERakha Mines (2)  22:27-22:27-  1433.4 66118mSEREast Singhbhum, Jharkhand
8.16ASBAsanboni  22:34-22:34-  1440.3 66129mSEREast Singhbhum, Jharkhand
8.17SLJRSalga Jhari  22:43-22:43-  1450.6 66179mSERJamshedpur, Jharkhand
9TATATatanagar Junction (5)  22:45+4222:55+3810m31452.751164mSER91-657-2423026, Jharkhand
9.1ADTPAdityapur (3)X  23:01-23:01-  1457.4 51152mSERJamshedpur, Jharkhand
9.2GMHGamharia (3)  23:08-23:08-  1463.4 51165mSERJamshedpur, Jharkhand
9.3BIRPBirarajpur (2)  23:14-23:14-  1468.8 51200mSERJamshedpur, Jharkhand
9.4KNDKandra (4)  23:19-23:19-  1473.3 51176mSERJamshedpur, Jharkhand
9.5KZUKunki (2)  23:23-23:23-  1476.5 51163mSERNational Highway 33, Jharkhand
9.6MIKManikul (2)  23:29-23:29-  1481.6 51170mSERJharkhand 832401, Jharkhand
9.7CNIChandil Junction (4)  23:36-23:36-  1487.5 51178mSERChandil, Jharkhand
9.8NIMNimdih  23:46-23:46-  1496.2 51209mSERNational Highway 32, Jharkhand
9.9BRMDBiramdih  23:56-23:56-  1504.3 51263mSERNational Highway 32, West Bengal
9.10BBMBarabhum  00:02-00:02-  2509.8 51229mSERBalarampur, West Bengal
9.11URMAUrma  00:13-00:13-  2518.5 51266mSERNational Highway 32, West Bengal
9.12KTDKantadih  00:22-00:22-  2526.6 51274mSERNational Highway 32, West Bengal
9.13TAOTamna  00:32-00:32-  2534.5 51236mSERNational Highway 32, West Bengal
9.14PRRPurulia Junction (4)p00:40-00:40-  2541.6 63240mSERPurulia, West Bengal
9.15CHRAChharra (2)  00:47-00:47-  2548.8 63255mSERPurulia, West Bengal
9.16KSUKustaur (2)  00:56-00:56-  2558.8 63235mSERPurulia, West Bengal
9.17BGABagalia (2)  00:59-00:59-  2561.7 63218mSERPurulia, West Bengal
9.18ANRAnara (2)  01:05-01:05-  2567.3 63216mSERdist - Purulia, West Bengal
9.19RUIRukni  01:13-01:13-  2576.2 63192mSERPurulia, West Bengal
9.20SNTDSantaldih (2)  01:21-01:21-  2584.4 63156mSERPurulia, West Bengal
9.21BJEBhojudih Junctionp01:27-01:27-  2590.9 63157mSERdist - Bokaro, Jharkhand
9.22SBWShewbabudih (2)  01:33-01:33-  2596.9 63158mSERSbewbabudi, Jharkhand
9.23TLETalgaria  01:39-01:39-  2603.1 63188mSERNational Highway 32, Jharkhand
9.24MHQMahuda Junctionp01:49-01:49-  2613.8 15203mSERNational Highway 32, Jharkhand
9.25KHRIKharkhari  02:10-02:10-  2619.1 15227mSERNawagarh, Jharkhand
9.26KNFKhanudih  02:27-02:27-  2623.4 15243mSERBokaro, Jharkhand
9.27KAROKhario P.H.  02:35-02:35-  2625.2 15252mSERMantand, Jharkhand
10GMONetaji SC Bose Gomoh Junction (6)XT03:10+1:2803:20+1:1810m--2634.080239mECRGomoh, Jharkhand
10.1BLMEBholldihX  03:24-03:24-  2638.8 80241mECRGomoh, Jharkhand
10.2NMGNimiaghat  03:28-03:28-  2644.5 80268mECRNational Highway 2, Jharkhand
10.3PNMEParasnath (5)X  03:33-03:33-  2652.1 80282mECRGiridih 06532-233419, Jharkhand
10.4CEMEChegro  03:43-03:43-  2665.1 80333mECRBeko, Jharkhand
10.5CDBChaudhribandh  03:46-03:46-  2669.4 80314mECRMaipatoli, Jharkhand
10.6UDLWAndal West Cabin  03:48-03:48-  2671.2 80323mERAndal, Jharkhand
10.7GRBHGarea Bihar  03:49-03:49-  2672.2 80315mECRSariya - Parsiya Rd, Jharkhand
10.8CCKChichakiX  03:50-03:50-  2674.1 80308mECRNational Highway 2, Jharkhand
10.9HZDHazaribagh Road (3)  03:54-03:54-  2679.1 80330mECRHazaribagh, Jharkhand
10.10KSHRKeshwari  03:58-03:58-  2684.8 80313mECRMandramo, Jharkhand
10.11CBHChaube  04:02-04:02-  2689.6 80325mECRParsabad, Jharkhand
10.12DSMEDasara  04:05-04:05-  2694.6 80342mECRSariya - Parsiya Road, Jharkhand
10.13PSBParsabad (3)  04:10-04:10-  2701.1 80346mECRNational Highway 2, Jharkhand
10.14YDDYadudih  04:14-04:14-  2706.6 80352mECRNational Highway 2, Jharkhand
10.15SMNDSarmatanr  04:17-04:17-  2710.5 80351mECRKoderma, Jharkhand
10.16HREHirodihX  04:23-04:23-  2718.3 80371mECRJhumri Telaiya, Jharkhand
10.17LRBLarabad  04:26-04:26-  2722.8 80393mECRJhumri Telaiya, Jharkhand
10.18KQRKoderma Junction (7)  04:30-04:30-  2727.4 80399mECR06534-222410 Koderma, Jharkhand
10.19GJDGujhandi  04:37-04:37-  2737.4 80386mECRNational Highway 31, Jharkhand
10.20LBZLalbag Block HutX  04:39-04:39-  2739.5 80389mECRState Highway 70, Bihar
10.21DLWDilwaX  04:42-04:42-  2744.1 80346mECRNational Highway 31, Bihar
10.22NGYNath Ganj  04:47-04:47-  2750.2 80284mECRMurli, Bihar
10.23BSCPBaskatwa B. H.  04:48-04:48-  2751.7 80273mECRMurli, Bihar
10.24YGMYadugram Block Hut  04:51-04:51-  2756.4 80210mECRYadugram Block Hut, Jharkhand
10.25GAPGurpaX  04:54-04:54-  2759.8 80192mECRLodhwe, Bihar
10.26PRPPaharpur  05:03-05:03-  2771.5 80150mECRGaya, Bihar
10.27BNSLBansinala Halt  05:07-05:07-  2777.7 80135mECRBansinala, Bihar
10.28TKNTankuppa  05:12-05:12-  2783.7 80127mECRState Highway 70, Bihar
10.29BNFBandhua  05:18-05:18-  2791.3 80124mECRState Highway 70, Bihar
10.30MPOManpur JunctionX  05:23-05:23-  2798.5 80113mECRGaya, Bihar
10.31SICYShaheed Ishwar Chowdhary Halt  05:24-05:24-  2800.2 80112mECRManpur, Bihar
10.32GAYAGaya Junction (9)  05:27-05:27-  2803.8 80117mECR0631-2220283, Bihar
10.33WCBGaya West Cabin  05:29-05:29-  2807.1 80111mECRGaya, Bihar
10.34KSTAKasthaXO  05:33-05:33-  2812.2 80113mECRGaya, Bihar
10.35PRYParaiya  05:39-05:39-  2819.4 80111mECRparaiya station Rd, Bihar
10.36GRRUGuraru  05:43-05:43-  2825.3 80114mECRGuraru, Bihar
10.37IMGEIsmailpurX  05:48-05:48-  2832.2 80114mECRState Highway 69, Bihar
10.38RFJRafiGanj (4)  05:55-05:55-  2841.4 80102mECRRafiganj, Bihar
10.39DORDDeo Road  06:00-06:00-  2848.5 80102mECRMaluk Bigha, Bihar
10.40JHNJakhimX  06:03-06:03-  2852.2 8093mECRbel Rd, Bihar
10.41BHKHBaghoi KusaX  06:08-06:08-  2858.8 8098mECRbel Rd, Bihar
10.42PESPhesar  06:11-06:11-  2863.3 80104mECRpheshar, Bihar
10.43AUBRAnugraha Narayan Road (4)O  06:18-06:18-  2872.3 80104mECR06186-285271, Bihar
10.44CPBHChiraila  06:22-06:22-  2877.3 80104mECRBarun, Bihar
10.45SEBSon Nagar Junction (4)  06:26-06:26-  2883.1 80110mECRBarun, Bihar
10.46ADSRADSR  06:30-06:30-  2888.0 80113mECRDehri, Bihar
10.47DOSDehri On Sone (6)XO  06:30-06:30-  2888.9 80114mECRRohtas(06184-253154), Bihar
10.48PHEPahaleja Halt  06:34-06:34-  2893.3 80112mECRPahaleja, Bihar
10.49KWDKarwandia  06:39-06:39-  2900.0 80113mECRKarwandiya, Bihar
10.50SSMSasaram Junction (4)  06:44-06:44-  2906.5 80111mECR06184-222051, Bihar
10.51KMGEKumahu  06:50-06:50-  2914.4 80101mECRKamahu, Bihar
10.52SSGShiu Sagar Road  06:54-06:54-  2920.1 8099mECRShiu Sagar Rd, Bihar
10.53KVDKhurmabad Road  06:57-06:57-  2924.9 8093mECRKhurmabad, Bihar
10.54KTQKudra (2)  07:03-07:03-  2931.8 8092mECRKudra, Bihar
10.55PSEPusauliX  07:09-07:09-  2940.8 8086mECRDistt: Rohtas, Bihar
10.56MTGEMuthaniX  07:15-07:15-  2948.7 8083mECRNational Highway 2, Bihar
10.57BBUBhabua Road (4)X  07:19-07:19-  2954.1 8080mECR06187-222222, Bihar
10.58DGODurgauti  07:26-07:26-  2963.0 8076mECRDistt Kaimur, Bihar
10.59DCXDhanaichha  07:30-07:30-  2968.5 8075mECRNational Highway 2, Bihar
10.60KMSKaramnasa  07:35-07:35-  2974.7 8078mECRNational Highway 2, Uttar Pradesh
10.61SYJSaidraja  07:41-07:41-  2982.9 8080mECRSaiyedraja, Uttar Pradesh
10.62CDMRChandauli Majhwar  07:47-07:47-  2991.2 8080mECRNational Highway 2, Uttar Pradesh
10.63GAQGanj Khawaja  07:53-07:53-  2999.8 8079mECRChandauli Mjhwr, Uttar Pradesh
10.64FOCMFlyover Cabin Mughal SaraiO  07:55-07:55-  21002.2 8080mECRChandauli Mjhwr, Uttar Pradesh
11MGSMughal Sarai Junction (8)T08:00+1:2208:20+1:0220m--21008.76583mECRMughalsarai 232101, Uttar Pradesh
11.1NEWCNew West Cabin  08:21-08:21-  21009.9 6580mECRMughal Sarai, Uttar Pradesh
11.2JEPJeonathpur (3)  08:27-08:27-  21016.5 6583mNCRVaranasi, Uttar Pradesh
11.3ARWAhraura Road (4)X  08:33-08:33-  21022.4 6585mNCRDist. Mirzapur - 231305, Uttar Pradesh
11.4KYTKailahat (4)X  08:41-08:41-  21030.9 6583mNCRKailahat, Uttar Pradesh
11.5CARChunar Junction (5)  08:49-08:49-  21040.6 6585mNCRChunar Junction, Uttar Pradesh
11.6DAPDagmagpur  08:56-08:56-  21048.0 6588mNCRDagmagpur, Uttar Pradesh
11.7PREPaharaX  09:04-09:04-  21056.0 6587mNCRNational Highway 7, Uttar Pradesh
11.8JHGJhinguraX  09:11-09:11-  21063.5 6585mNCRNational Highway 7, Uttar Pradesh
11.9MZPMirzapur (3)X  09:18-09:18-  21071.8 6588mNCRMirzapur, Uttar Pradesh
11.10BDLVindhyachal (3)  09:25-09:25-  21079.2 6588mNCRMirzapur, Uttar Pradesh
11.11BEOBiroheX  09:29-09:29-  21083.9 6583mNCRNational Highway 76, Uttar Pradesh
11.12GAEGaipura (4)  09:36-09:36-  21091.5 6586mNCRGaipura, Uttar Pradesh
11.13JIAJigna (1)  09:43-09:43-  21098.3 6594mNCRNational Highway 76, Uttar Pradesh
11.14MNFManda RoadX  09:51-09:51-  21106.7 6593mNCRNH 76, Uttar Pradesh
11.15UNDUnchdih  09:58-09:58-  21114.8 6594mNCRUnchdih, Uttar Pradesh
11.16MJAMeja Road (4)  10:05-10:05-  21122.9 6594mNCRDistrict Allahabad, Uttar Pradesh
11.17BEPBheerpurO  10:16-10:16-  21134.2 6594mNCRNH 76, Uttar Pradesh
11.18KCNKarchana  10:24-10:24-  21143.3 6594mNCRKarchana, Uttar Pradesh
11.19COIChheoki Junction (3)  10:33-10:33-  21152.3 6596mNCRDist.-Allahabad, Uttar Pradesh
11.20NYNNaini Junction (4)  10:34-10:34-  21153.9 6598mNCRAllahabad, Uttar Pradesh
11.21ALDAllahabad Junction (10)p10:41-10:41-  21161.4 65100mNCRAllahabad 211003, Uttar Pradesh
11.22SFGSubedarGanj (3)  10:44-10:44-  21165.1 65100mNCRAllahabad, Uttar Pradesh
11.23BMUBamhrauli  10:49-10:49-  21170.2 65102mNCRAllahabad, Uttar Pradesh
11.24MREManauri  10:57-10:57-  21178.6 65105mNCRSabderganj-Fatehpur Rd, Uttar Pradesh
11.25SYWNSaiyid Sarawan  11:01-11:01-  21183.2 65106mNCR212203 ?, Uttar Pradesh
11.26MNJManoharGanj  11:08-11:08-  21190.6 65104mNCRNational Highway 2, Uttar Pradesh
11.27BREBharwari  11:15-11:15-  21198.4 65108mNCRBharwari, Uttar Pradesh
11.28BDNPBidanpur  11:19-11:19-  21202.5 65106mNCRBidanpur, Uttar Pradesh
11.29SJTShujaatpur  11:25-11:25-  21208.7 65107mNCRNational Highway 2, Uttar Pradesh
11.30SROSirathu (2)  11:34-11:34-  21218.6 65109mNCRSirathu, Uttar Pradesh
11.31ASCEAthsarai  11:40-11:40-  21225.0 65107mNCRAthsarai, Uttar Pradesh
11.32KUWKanwar  11:45-11:45-  21230.4 65110mNCRNational Highway 2, Uttar Pradesh
11.33KTCEKatoghan  11:50-11:50-  21236.5 65109mNCRNational Highway 2, Uttar Pradesh
11.34KGAKhaga (3)  11:57-11:57-  21243.4 65114mNCRFatehpur, Uttar Pradesh
11.35SNIESath Naraini  12:03-12:03-  21250.9 65114mNCRNational Highway 2, Uttar Pradesh
11.36RUBRasulabad  12:10-12:10-  21257.9 65118mNCRRasulabad, Uttar Pradesh
11.37FYZFaizullapurX  12:18-12:18-  21267.1 65115mNCRFaizullapur, Uttar Pradesh
11.38RAMARamva  12:23-12:23-  21272.2 65116mNCRforcing detours between Kanpur and Varanasi, Uttar Pradesh
11.39FTPFatehpur (3)  12:29-12:29-  21278.1 65120mNCRFatehpur, Uttar Pradesh
11.40KKSKurasti Kalan  12:35-12:35-  21285.1 65119mNCRJoniha Rd, Uttar Pradesh
11.41MWHMalwan (2)  12:43-12:43-  21294.2 65122mNCRFatehpur, Uttar Pradesh
11.42KSQKanspur Gugauli  12:50-12:50-  21301.4 65124mNCRNational Highway 2, Uttar Pradesh
11.43BKOBindki RoadX  12:57-12:57-  21309.4 65124mNCRFatehpur, Uttar Pradesh
11.44AUNGAung  13:03-13:03-  21315.3 65123mNCRNational Highway 2, Uttar Pradesh
11.45KBNKarbigwanX  13:09-13:09-  21321.7 65121mNCRFatehpur, Uttar Pradesh
11.46PMPRPrempurX  13:14-13:14-  21327.0 65125mNCRNational Highway 2, Uttar Pradesh
11.47SSLSirsaul (1)  13:19-13:19-  21333.1 65125mNCRKANPUR-209 402, Uttar Pradesh
11.48RXMRooma (2)  13:25-13:25-  21339.7 65125mNCRKANPUR-208 008, Uttar Pradesh
11.49CHKChakeri (2)X  13:29-13:29-  21344.3 65126mNCRKANPUR-208 008, Uttar Pradesh
11.50CNBIChandari (2)  13:36-13:36-  21351.2 65125mNCRKanpur Cantt, Uttar Pradesh
12CNBKanpur Central (10)X  13:40+2:5713:55+2:5815m--21355.764128mNCRKANPUR-208 001, Uttar Pradesh
12.1GMCKanpur Goods Marshalling Yard  13:56-13:56-  21356.9 64128mNCRKanpur-208 014, Uttar Pradesh
12.2CNJOJuhi Outer Cabin  13:58-13:58-  21358.6 64131mNCRKanpur, Uttar Pradesh
12.3CPNLKanpur C Panel  13:58-13:58-  21359.1 64127mNCRKanpur, Uttar Pradesh
12.4GOYGovindpuri Junction (2)  13:59-13:59-  21359.6 64129mNCRKANPUR-208 006, Uttar Pradesh
12.5PNKPanki (3)X  14:06-14:06-  21367.2 64129mNCRKANPUR-208 020, Uttar Pradesh
12.6BPUBhaupur  14:16-14:16-  21378.4 64133mNCRKANPUR Dehat-209 307, Uttar Pradesh
12.7MTOMaithaX  14:26-14:26-  21388.3 64235mNCRMDR 78C, Uttar Pradesh
12.8RMWRoshan Mau  14:30-14:30-  21392.4 64135mNCRRoshan Mau, Uttar Pradesh
12.9RURARura (4)  14:37-14:37-  21400.0 64137mNCRJhinjhak, Uttar Pradesh
12.10AAPAmbiapur  14:45-14:45-  21408.8 64140mNCRJhinjhak, Uttar Pradesh
12.11JJKJhinjhak (3)  14:55-14:55-  21419.1 64140mNCRAuraiya, Uttar Pradesh
12.12PJYPara Jani Halt (1)  15:00-15:00-  21424.9 64139mNCRPara Jani, Uttar Pradesh
12.13KNSKanchausi (2)  15:05-15:05-  21430.0 64143mNCRState Highway 21, Uttar Pradesh
12.14PHDPhaphund (4)  15:13-15:13-  21438.9 64146mNCRdist. Auraiya, Uttar Pradesh
12.15PATAPata (3)  15:21-15:21-  21447.3 64143mNCRPhaphund, Uttar Pradesh
12.16ULDAchalda (3)  15:29-15:29-  21455.7 64147mNCRDist. Auraiya(05688-1072), Uttar Pradesh
12.17GHSRGhasara Halt (1)  15:34-15:34-  21461.1 64146mNCRPhaphund, Uttar Pradesh
12.18SHWSamhon (2)  15:38-15:38-  21464.8 64144mNCRSamahon, Uttar Pradesh
12.19BNTBharthana (3)XO  15:48-15:48-  21475.2 64147mNCRBharthana, Uttar Pradesh
12.20EKLEkdil (2)  15:57-15:57-  21485.3 64150mNCRSarai Ikdil, Uttar Pradesh
12.21ETWEtawah (5)X  16:06-16:06-  21495.1 64154mNCRDistt. Etawah, Uttar Pradesh
12.22SBSarai Bhopat (2)X  16:14-16:14-  21503.4 64151mNCREtawah(05688-1072), Uttar Pradesh
12.23JGRJaswantnagar (2)  16:21-16:21-  21511.0 64154mNCRJaswantnagar, Uttar Pradesh
12.24BBLBalrai (3)X  16:29-16:29-  21519.7 64157mNCRBalrai, Uttar Pradesh
12.25BDNBhadan (2)X  16:40-16:40-  21530.5 64160mNCRFirozabad, Uttar Pradesh
12.26KAAKaurara (3)X  16:48-16:48-  21539.6 64160mNCRFirozabad Distt, Uttar Pradesh
12.27SKBShikohabad Junction (4)  16:58-16:58-  21550.5 64166mNCRDistrict Firozabad, Uttar Pradesh
12.28MNRMakkhanpur (2)X  17:08-17:08-  21560.4 64166mNCRNational Highway 2, Uttar Pradesh
12.29FZDFirozabad (4)X  17:17-17:17-  21570.3 64164mNCRFirozabad, Uttar Pradesh
12.30HNGHirangaon (2)X  17:24-17:24-  21578.1 64166mNCRNational Highway 2, Uttar Pradesh
12.31TDLTundla Junction (5)  17:33-17:33-  21586.9 64167mNCRDistt.Firozabad, Uttar Pradesh
12.32WSCShivarampurX  17:36-17:36-  21590.4 64168mNCRShivarampur, Uttar Pradesh
12.33MTIMitawali (1)  17:39-17:39-  21593.7 64169mNCRMitawali, Uttar Pradesh
12.34BRNBarhan JunctionX  17:47-17:47-  21601.6 64173mNCRJN Point-Tundle/Aligarh/Etah, Uttar Pradesh
12.35CMRChamrola (1)X  17:53-17:53-  21608.4 64174mNCRMDR 106W, Uttar Pradesh
12.36JLSJalesar Road (1)X  17:59-17:59-  21614.8 64172mNCRMDR 106W, Uttar Pradesh
12.37PORAPora (2)X  18:08-18:08-  21624.5 64179mNCRHathras, Uttar Pradesh
12.38HRSHathras Junction (3)X  18:18-18:18-  21634.8 64183mNCRMahamaya Nagar(05722-242803), Uttar Pradesh
12.39SNSSasni (3)X  18:26-18:26-  21643.8 64185mNCRSasni, Uttar Pradesh
12.40MXKMandrak (2)X  18:33-18:33-  21651.2 64190mNCRNational Highway 93, Uttar Pradesh
12.41DAQDaud Khan (3)X  18:40-18:40-  21658.0 64189mNCRNational Highway 91, Uttar Pradesh
12.42ALJNAligarh Junction (4)X  18:46-18:46-  21665.0 64192mNCRAligarh, Uttar Pradesh
12.43MWUEMahrawal (2)  18:52-18:52-  21671.4 64189mNCRNational Highway 91, Uttar Pradesh
12.44KLAKulwa (2)X  18:57-18:57-  21677.0 64190mNCRAligarh, Uttar Pradesh
12.45SOMSomna (2)  19:07-19:07-  21687.1 64195mNCRNational Highway 91, Uttar Pradesh
12.46DARDanwar (2)  19:17-19:17-  21697.4 64198mNCRDanwar, Uttar Pradesh
12.47KAMPKamalpur (2)  19:22-19:22-  21703.0 64195mNCRKamalpur, Uttar Pradesh
12.48KRJKhurja Junction (4)  19:27-19:27-  21708.5 64199mNCRBulandshahr, Uttar Pradesh
12.49SKQSikandarpur (2)X  19:33-19:33-  21714.2 64199mNCRMDR 70W, Uttar Pradesh
12.50GNRLGangraul (3)  19:37-19:37-  21719.0 64200mNCRMDR 70W, Uttar Pradesh
12.51CHLChola (3)  19:41-19:41-  21723.1 64204mNCRTahsil Bulandshahar, Uttar Pradesh
12.52WIRWair  19:45-19:45-  21727.9 64203mNCRBhati Harish Singh, Uttar Pradesh
12.53WAIRWair (2)X  19:46-19:46-  21728.0 64203mNCRBulandshahr District, Uttar Pradesh
12.54DKDEDankaur (3)X  19:54-19:54-  21737.0 64209mNCRShyam Nagar Mandi, Uttar Pradesh
12.55AJRAjaibpur (2)  20:02-20:02-  21745.3 64207mNCRGreater Noida, Uttar Pradesh
12.56BRKYBoraki (2)  20:06-20:06-  21750.2 64208mNCRNational Highway 91, Uttar Pradesh
12.57DERDadri (3)X  20:10-20:10-  21754.4 64210mNCR203207, Uttar Pradesh
12.58MIUMaripat (2)O  20:17-20:17-  21761.2 64213mNCRNational Highway 91, Uttar Pradesh
12.59CYZChipyana Buzurg (1)  20:23-20:23-  21767.6 64209mNRGhaziabad, Uttar Pradesh
12.60GZBGhaziabad Junction (6)XO  20:26-20:26-  21771.2 64217mNRGhaziabad, Uttar Pradesh
12.61SBBSahibabad Junction (5)X  20:33-20:33-  21778.4 64209mNRGhaziabad, Uttar Pradesh
12.62DSBPDelhi Shahdara B Panel  20:35-20:35-  21780.8 64206mNRGhaziabad, Uttar Pradesh
12.63CNJChander Nagar (2)X  20:36-20:36-  21782.1 64206mNRSahibabad Industrial Area Site 4, Uttar Pradesh
12.64ANVTDelhi Anand Vihar Terminal (3)  20:38-20:38-  21784.2 64208mNRGhazipur Road, Delhi NCT
12.65ANVRAnand Vihar (2)  20:39-20:39-  21784.3 64213mNRAnand Vihar, Delhi NCT
12.66MWCMandawali-Chander Vihar (2)X  20:42-20:42-  21787.7 64206mNRDelhi-110092, Delhi NCT
12.67TKJTilak Bridge (4)  20:48-20:48-  21794.0 64214mNRNew Delhi, Delhi NCT
12.68CSBShivaji Bridge (4)  20:49-20:49-  21795.3 64213mNRConnaught Place, Delhi NCT
13NDLSNew Delhi (16)  20:50+2:51-1421796.5-215mNRNew Delhi, Delhi NCT
Scroll to Top
Scroll to Bottom